アディスアベバ の空港の天気 - METARとTAF

ボレ国際空港(アディスアベバ) ( HAAB / ADD ) - エチオピア アディスアベバ
飛行場実況気象(Metar)
観測時間05/29 01:00 EAT (05/28 22:00 UTC)
風向・風速北東 5m/s
視程10km以上
天気現象
少しの雲 雲底高度 760m
気温18℃
湿度45%
気圧1025hPa
METARHAAB 282200Z 05010KT 9999 FEW025 18/06 Q1025 NOSIG
過去の天気等 Google飛行場航空写真 Wunderground天気予報

過去48時間のMETAR

飛行場予報(TAF)
発表時間: 5/28 18:30 EAT (5/28 15:30 UTC)
予報対象時間: 28日21時 EAT ~ 30日3時 EAT
風向・風速東 4m/s 瞬間風速 13m/s
視程10km以上
少しの雲 雲底高度 760m
全天の4割程度の雲 雲底高度 2440m
TAF HAAB 281530Z 2818/2924 09007G26KT 9999 FEW025 SCT080